sensor_id;sensor_type;location;lat;lon;timestamp;P1;durP1;ratioP1;P2;durP2;ratioP2
11078;SDS011;5592;49.234;7.268;2023-08-24T00:01:10;7.80;;;5.73;;
11078;SDS011;5592;49.234;7.268;2023-08-24T00:03:37;8.60;;;6.17;;
11078;SDS011;5592;49.234;7.268;2023-08-24T00:06:03;7.20;;;5.70;;
11078;SDS011;5592;49.234;7.268;2023-08-24T00:08:29;10.77;;;5.77;;
11078;SDS011;5592;49.234;7.268;2023-08-24T00:10:55;14.23;;;5.90;;
11078;SDS011;5592;49.234;7.268;2023-08-24T00:13:21;9.37;;;5.83;;
11078;SDS011;5592;49.234;7.268;2023-08-24T00:15:47;6.53;;;5.70;;
11078;SDS011;5592;49.234;7.268;2023-08-24T00:18:12;10.40;;;6.00;;
11078;SDS011;5592;49.234;7.268;2023-08-24T00:20:38;6.63;;;5.27;;
11078;SDS011;5592;49.234;7.268;2023-08-24T00:23:03;10.17;;;6.70;;
11078;SDS011;5592;49.234;7.268;2023-08-24T00:25:29;8.00;;;6.13;;
11078;SDS011;5592;49.234;7.268;2023-08-24T00:27:56;7.80;;;6.20;;
11078;SDS011;5592;49.234;7.268;2023-08-24T00:30:21;14.27;;;5.80;;
11078;SDS011;5592;49.234;7.268;2023-08-24T00:32:48;8.50;;;6.00;;
11078;SDS011;5592;49.234;7.268;2023-08-24T00:35:13;11.77;;;6.50;;
11078;SDS011;5592;49.234;7.268;2023-08-24T00:37:39;10.40;;;6.43;;
11078;SDS011;5592;49.234;7.268;2023-08-24T00:40:06;6.20;;;5.10;;
11078;SDS011;5592;49.234;7.268;2023-08-24T00:42:41;6.33;;;5.73;;
11078;SDS011;5592;49.234;7.268;2023-08-24T00:45:09;9.40;;;6.17;;
11078;SDS011;5592;49.234;7.268;2023-08-24T00:47:36;11.03;;;5.40;;
11078;SDS011;5592;49.234;7.268;2023-08-24T00:50:05;9.83;;;5.80;;
11078;SDS011;5592;49.234;7.268;2023-08-24T00:52:31;9.17;;;6.40;;
11078;SDS011;5592;49.234;7.268;2023-08-24T00:55:01;9.43;;;5.43;;
11078;SDS011;5592;49.234;7.268;2023-08-24T00:57:27;8.90;;;5.93;;
11078;SDS011;5592;49.234;7.268;2023-08-24T00:59:53;8.70;;;6.03;;
11078;SDS011;5592;49.234;7.268;2023-08-24T01:02:19;9.67;;;5.63;;
11078;SDS011;5592;49.234;7.268;2023-08-24T01:04:45;13.43;;;6.17;;
11078;SDS011;5592;49.234;7.268;2023-08-24T01:07:12;8.47;;;5.70;;
11078;SDS011;5592;49.234;7.268;2023-08-24T01:09:38;10.47;;;6.03;;
11078;SDS011;5592;49.234;7.268;2023-08-24T01:12:05;8.97;;;5.10;;
11078;SDS011;5592;49.234;7.268;2023-08-24T01:17:44;6.80;;;5.87;;
11078;SDS011;5592;49.234;7.268;2023-08-24T01:20:12;6.80;;;4.93;;
11078;SDS011;5592;49.234;7.268;2023-08-24T01:23:03;8.10;;;5.23;;
11078;SDS011;5592;49.234;7.268;2023-08-24T01:28:10;12.27;;;6.17;;
11078;SDS011;5592;49.234;7.268;2023-08-24T01:30:38;6.37;;;5.37;;
11078;SDS011;5592;49.234;7.268;2023-08-24T01:33:04;10.03;;;5.60;;
11078;SDS011;5592;49.234;7.268;2023-08-24T01:35:30;6.30;;;5.60;;
11078;SDS011;5592;49.234;7.268;2023-08-24T01:37:57;6.50;;;5.37;;
11078;SDS011;5592;49.234;7.268;2023-08-24T01:40:30;7.87;;;6.00;;
11078;SDS011;5592;49.234;7.268;2023-08-24T01:43:05;9.17;;;6.70;;
11078;SDS011;5592;49.234;7.268;2023-08-24T01:45:34;9.10;;;5.67;;
11078;SDS011;5592;49.234;7.268;2023-08-24T01:48:00;10.43;;;6.40;;
11078;SDS011;5592;49.234;7.268;2023-08-24T01:50:28;15.83;;;7.30;;
11078;SDS011;5592;49.234;7.268;2023-08-24T01:52:57;10.43;;;6.00;;
11078;SDS011;5592;49.234;7.268;2023-08-24T01:55:24;10.10;;;5.50;;
11078;SDS011;5592;49.234;7.268;2023-08-24T01:57:50;6.70;;;6.00;;
11078;SDS011;5592;49.234;7.268;2023-08-24T02:00:15;7.60;;;6.27;;
11078;SDS011;5592;49.234;7.268;2023-08-24T02:02:44;8.40;;;6.07;;
11078;SDS011;5592;49.234;7.268;2023-08-24T02:05:09;6.80;;;5.80;;
11078;SDS011;5592;49.234;7.268;2023-08-24T02:07:35;11.40;;;6.50;;
11078;SDS011;5592;49.234;7.268;2023-08-24T02:10:01;11.90;;;7.13;;
11078;SDS011;5592;49.234;7.268;2023-08-24T02:12:27;14.50;;;6.90;;
11078;SDS011;5592;49.234;7.268;2023-08-24T02:14:52;9.13;;;7.43;;
11078;SDS011;5592;49.234;7.268;2023-08-24T02:17:18;17.70;;;7.77;;
11078;SDS011;5592;49.234;7.268;2023-08-24T02:19:43;8.13;;;6.50;;
11078;SDS011;5592;49.234;7.268;2023-08-24T02:22:09;8.23;;;6.67;;
11078;SDS011;5592;49.234;7.268;2023-08-24T02:24:34;8.77;;;6.30;;
11078;SDS011;5592;49.234;7.268;2023-08-24T02:27:00;9.40;;;6.00;;
11078;SDS011;5592;49.234;7.268;2023-08-24T02:29:26;17.10;;;6.97;;
11078;SDS011;5592;49.234;7.268;2023-08-24T02:31:52;7.50;;;5.90;;
11078;SDS011;5592;49.234;7.268;2023-08-24T02:34:18;10.97;;;6.50;;
11078;SDS011;5592;49.234;7.268;2023-08-24T02:36:44;8.10;;;6.10;;
11078;SDS011;5592;49.234;7.268;2023-08-24T02:39:09;9.60;;;6.13;;
11078;SDS011;5592;49.234;7.268;2023-08-24T02:41:35;9.80;;;5.53;;
11078;SDS011;5592;49.234;7.268;2023-08-24T02:44:01;7.37;;;5.77;;
11078;SDS011;5592;49.234;7.268;2023-08-24T02:46:27;6.33;;;5.53;;
11078;SDS011;5592;49.234;7.268;2023-08-24T02:48:52;7.27;;;6.53;;
11078;SDS011;5592;49.234;7.268;2023-08-24T02:51:20;8.27;;;5.80;;
11078;SDS011;5592;49.234;7.268;2023-08-24T02:53:46;6.83;;;6.00;;
11078;SDS011;5592;49.234;7.268;2023-08-24T02:56:12;7.73;;;6.70;;
11078;SDS011;5592;49.234;7.268;2023-08-24T02:58:37;6.87;;;6.17;;
11078;SDS011;5592;49.234;7.268;2023-08-24T03:01:06;9.80;;;5.67;;
11078;SDS011;5592;49.234;7.268;2023-08-24T03:03:33;9.13;;;6.53;;
11078;SDS011;5592;49.234;7.268;2023-08-24T03:06:00;10.03;;;5.87;;
11078;SDS011;5592;49.234;7.268;2023-08-24T03:08:28;8.20;;;6.10;;
11078;SDS011;5592;49.234;7.268;2023-08-24T03:10:54;7.10;;;6.20;;
11078;SDS011;5592;49.234;7.268;2023-08-24T03:13:20;17.07;;;7.00;;
11078;SDS011;5592;49.234;7.268;2023-08-24T03:15:45;9.10;;;6.40;;
11078;SDS011;5592;49.234;7.268;2023-08-24T03:18:11;6.17;;;5.60;;
11078;SDS011;5592;49.234;7.268;2023-08-24T03:20:38;7.17;;;6.03;;
11078;SDS011;5592;49.234;7.268;2023-08-24T03:23:04;7.87;;;6.53;;
11078;SDS011;5592;49.234;7.268;2023-08-24T03:25:30;9.07;;;6.30;;
11078;SDS011;5592;49.234;7.268;2023-08-24T03:28:00;9.23;;;5.87;;
11078;SDS011;5592;49.234;7.268;2023-08-24T03:30:26;7.00;;;6.20;;
11078;SDS011;5592;49.234;7.268;2023-08-24T03:32:52;7.37;;;5.40;;
11078;SDS011;5592;49.234;7.268;2023-08-24T03:35:18;7.60;;;5.80;;
11078;SDS011;5592;49.234;7.268;2023-08-24T03:37:43;7.20;;;5.53;;
11078;SDS011;5592;49.234;7.268;2023-08-24T03:40:09;6.67;;;5.63;;
11078;SDS011;5592;49.234;7.268;2023-08-24T03:42:35;11.23;;;6.07;;
11078;SDS011;5592;49.234;7.268;2023-08-24T03:45:00;13.00;;;5.33;;
11078;SDS011;5592;49.234;7.268;2023-08-24T03:47:26;6.50;;;5.63;;
11078;SDS011;5592;49.234;7.268;2023-08-24T03:49:51;7.90;;;6.63;;
11078;SDS011;5592;49.234;7.268;2023-08-24T03:52:17;9.73;;;6.10;;
11078;SDS011;5592;49.234;7.268;2023-08-24T03:54:43;7.63;;;6.00;;
11078;SDS011;5592;49.234;7.268;2023-08-24T03:57:08;7.00;;;5.77;;
11078;SDS011;5592;49.234;7.268;2023-08-24T03:59:34;6.53;;;5.83;;
11078;SDS011;5592;49.234;7.268;2023-08-24T04:02:00;9.03;;;6.37;;
11078;SDS011;5592;49.234;7.268;2023-08-24T04:04:28;6.13;;;5.53;;
11078;SDS011;5592;49.234;7.268;2023-08-24T04:06:54;6.27;;;5.73;;
11078;SDS011;5592;49.234;7.268;2023-08-24T04:09:20;7.50;;;6.20;;
11078;SDS011;5592;49.234;7.268;2023-08-24T04:11:46;8.00;;;6.40;;
11078;SDS011;5592;49.234;7.268;2023-08-24T04:14:11;9.50;;;5.97;;
11078;SDS011;5592;49.234;7.268;2023-08-24T04:16:37;8.20;;;5.67;;
11078;SDS011;5592;49.234;7.268;2023-08-24T04:19:02;7.63;;;6.07;;
11078;SDS011;5592;49.234;7.268;2023-08-24T04:21:28;6.63;;;5.23;;
11078;SDS011;5592;49.234;7.268;2023-08-24T04:23:54;6.63;;;5.90;;
11078;SDS011;5592;49.234;7.268;2023-08-24T04:26:19;5.63;;;4.50;;
11078;SDS011;5592;49.234;7.268;2023-08-24T04:28:45;8.93;;;5.50;;
11078;SDS011;5592;49.234;7.268;2023-08-24T04:31:10;7.47;;;5.70;;
11078;SDS011;5592;49.234;7.268;2023-08-24T04:33:36;8.17;;;5.27;;
11078;SDS011;5592;49.234;7.268;2023-08-24T04:36:01;6.37;;;5.67;;
11078;SDS011;5592;49.234;7.268;2023-08-24T04:38:28;6.40;;;5.10;;
11078;SDS011;5592;49.234;7.268;2023-08-24T04:40:54;8.57;;;5.67;;
11078;SDS011;5592;49.234;7.268;2023-08-24T04:43:21;6.97;;;5.60;;
11078;SDS011;5592;49.234;7.268;2023-08-24T04:45:48;5.73;;;5.20;;
11078;SDS011;5592;49.234;7.268;2023-08-24T04:48:17;6.83;;;4.80;;
11078;SDS011;5592;49.234;7.268;2023-08-24T04:50:46;8.23;;;4.60;;
11078;SDS011;5592;49.234;7.268;2023-08-24T04:53:14;8.17;;;4.97;;
11078;SDS011;5592;49.234;7.268;2023-08-24T04:55:41;6.97;;;4.13;;
11078;SDS011;5592;49.234;7.268;2023-08-24T04:58:09;5.60;;;4.57;;
11078;SDS011;5592;49.234;7.268;2023-08-24T05:00:36;8.80;;;4.13;;
11078;SDS011;5592;49.234;7.268;2023-08-24T05:03:02;7.07;;;4.20;;
11078;SDS011;5592;49.234;7.268;2023-08-24T05:05:31;5.40;;;4.63;;
11078;SDS011;5592;49.234;7.268;2023-08-24T05:07:58;9.13;;;4.30;;
11078;SDS011;5592;49.234;7.268;2023-08-24T05:10:25;3.90;;;3.60;;
11078;SDS011;5592;49.234;7.268;2023-08-24T05:12:51;5.67;;;3.90;;
11078;SDS011;5592;49.234;7.268;2023-08-24T05:15:17;4.40;;;4.00;;
11078;SDS011;5592;49.234;7.268;2023-08-24T05:17:42;5.70;;;4.43;;
11078;SDS011;5592;49.234;7.268;2023-08-24T05:20:08;5.93;;;4.63;;
11078;SDS011;5592;49.234;7.268;2023-08-24T05:22:37;4.27;;;3.87;;
11078;SDS011;5592;49.234;7.268;2023-08-24T05:25:06;8.20;;;4.70;;
11078;SDS011;5592;49.234;7.268;2023-08-24T05:27:32;4.40;;;4.00;;
11078;SDS011;5592;49.234;7.268;2023-08-24T05:29:57;9.90;;;4.70;;
11078;SDS011;5592;49.234;7.268;2023-08-24T05:32:23;6.50;;;4.00;;
11078;SDS011;5592;49.234;7.268;2023-08-24T05:34:49;8.03;;;4.10;;
11078;SDS011;5592;49.234;7.268;2023-08-24T05:37:15;6.77;;;4.30;;
11078;SDS011;5592;49.234;7.268;2023-08-24T05:39:40;6.17;;;4.07;;
11078;SDS011;5592;49.234;7.268;2023-08-24T05:42:07;5.43;;;4.50;;
11078;SDS011;5592;49.234;7.268;2023-08-24T05:44:33;6.80;;;4.03;;
11078;SDS011;5592;49.234;7.268;2023-08-24T05:46:59;6.70;;;4.00;;
11078;SDS011;5592;49.234;7.268;2023-08-24T05:49:24;7.10;;;4.03;;
11078;SDS011;5592;49.234;7.268;2023-08-24T05:51:50;5.47;;;4.13;;
11078;SDS011;5592;49.234;7.268;2023-08-24T05:54:16;6.60;;;4.13;;
11078;SDS011;5592;49.234;7.268;2023-08-24T05:56:43;6.10;;;3.90;;
11078;SDS011;5592;49.234;7.268;2023-08-24T05:59:09;7.13;;;4.33;;
11078;SDS011;5592;49.234;7.268;2023-08-24T06:01:35;7.63;;;4.23;;
11078;SDS011;5592;49.234;7.268;2023-08-24T06:04:04;5.60;;;4.27;;
11078;SDS011;5592;49.234;7.268;2023-08-24T06:06:33;4.93;;;3.90;;
11078;SDS011;5592;49.234;7.268;2023-08-24T06:08:59;5.30;;;3.40;;
11078;SDS011;5592;49.234;7.268;2023-08-24T06:11:24;5.00;;;3.37;;
11078;SDS011;5592;49.234;7.268;2023-08-24T06:13:50;8.10;;;3.10;;
11078;SDS011;5592;49.234;7.268;2023-08-24T06:16:18;3.30;;;3.00;;
11078;SDS011;5592;49.234;7.268;2023-08-24T06:18:44;5.50;;;3.40;;
11078;SDS011;5592;49.234;7.268;2023-08-24T06:21:10;3.93;;;3.37;;
11078;SDS011;5592;49.234;7.268;2023-08-24T06:23:35;3.73;;;3.03;;
11078;SDS011;5592;49.234;7.268;2023-08-24T06:26:01;3.30;;;3.00;;
11078;SDS011;5592;49.234;7.268;2023-08-24T06:28:26;3.40;;;2.97;;
11078;SDS011;5592;49.234;7.268;2023-08-24T06:30:52;4.60;;;3.50;;
11078;SDS011;5592;49.234;7.268;2023-08-24T06:33:20;4.90;;;3.13;;
11078;SDS011;5592;49.234;7.268;2023-08-24T06:35:46;7.60;;;3.27;;
11078;SDS011;5592;49.234;7.268;2023-08-24T06:38:11;7.50;;;2.77;;
11078;SDS011;5592;49.234;7.268;2023-08-24T06:40:38;3.13;;;2.83;;
11078;SDS011;5592;49.234;7.268;2023-08-24T06:43:04;3.17;;;2.90;;
11078;SDS011;5592;49.234;7.268;2023-08-24T06:45:30;4.30;;;2.93;;
11078;SDS011;5592;49.234;7.268;2023-08-24T06:47:56;13.60;;;3.33;;
11078;SDS011;5592;49.234;7.268;2023-08-24T06:50:21;4.60;;;2.77;;
11078;SDS011;5592;49.234;7.268;2023-08-24T06:52:47;4.60;;;3.30;;
11078;SDS011;5592;49.234;7.268;2023-08-24T06:55:13;2.87;;;2.57;;
11078;SDS011;5592;49.234;7.268;2023-08-24T06:57:39;6.00;;;2.97;;
11078;SDS011;5592;49.234;7.268;2023-08-24T07:00:05;5.23;;;3.03;;
11078;SDS011;5592;49.234;7.268;2023-08-24T07:02:33;3.90;;;3.20;;
11078;SDS011;5592;49.234;7.268;2023-08-24T07:05:00;7.90;;;3.43;;
11078;SDS011;5592;49.234;7.268;2023-08-24T07:07:26;4.53;;;3.43;;
11078;SDS011;5592;49.234;7.268;2023-08-24T07:09:51;9.30;;;3.57;;
11078;SDS011;5592;49.234;7.268;2023-08-24T07:12:17;4.30;;;3.17;;
11078;SDS011;5592;49.234;7.268;2023-08-24T07:14:43;5.93;;;3.40;;
11078;SDS011;5592;49.234;7.268;2023-08-24T07:17:08;6.40;;;3.57;;
11078;SDS011;5592;49.234;7.268;2023-08-24T07:19:34;5.03;;;3.37;;
11078;SDS011;5592;49.234;7.268;2023-08-24T07:22:00;3.60;;;3.00;;
11078;SDS011;5592;49.234;7.268;2023-08-24T07:24:26;10.93;;;3.90;;
11078;SDS011;5592;49.234;7.268;2023-08-24T07:26:53;9.23;;;3.40;;
11078;SDS011;5592;49.234;7.268;2023-08-24T07:29:19;7.53;;;3.63;;
11078;SDS011;5592;49.234;7.268;2023-08-24T07:31:45;6.30;;;3.75;;
11078;SDS011;5592;49.234;7.268;2023-08-24T07:34:11;4.72;;;2.95;;
11078;SDS011;5592;49.234;7.268;2023-08-24T07:36:36;3.85;;;3.13;;
11078;SDS011;5592;49.234;7.268;2023-08-24T07:39:02;4.75;;;3.13;;
11078;SDS011;5592;49.234;7.268;2023-08-24T07:41:28;5.93;;;3.20;;
11078;SDS011;5592;49.234;7.268;2023-08-24T07:43:53;6.70;;;3.35;;
11078;SDS011;5592;49.234;7.268;2023-08-24T07:46:19;6.35;;;3.30;;
11078;SDS011;5592;49.234;7.268;2023-08-24T07:48:45;3.95;;;2.97;;
11078;SDS011;5592;49.234;7.268;2023-08-24T07:51:10;4.88;;;3.20;;
11078;SDS011;5592;49.234;7.268;2023-08-24T07:53:36;5.35;;;3.03;;
11078;SDS011;5592;49.234;7.268;2023-08-24T07:56:02;7.10;;;3.28;;
11078;SDS011;5592;49.234;7.268;2023-08-24T07:58:27;5.82;;;3.10;;
11078;SDS011;5592;49.234;7.268;2023-08-24T08:00:53;5.85;;;3.13;;
11078;SDS011;5592;49.234;7.268;2023-08-24T08:03:19;7.07;;;3.00;;
11078;SDS011;5592;49.234;7.268;2023-08-24T08:05:46;3.97;;;3.10;;
11078;SDS011;5592;49.234;7.268;2023-08-24T08:08:15;4.93;;;3.40;;
11078;SDS011;5592;49.234;7.268;2023-08-24T08:10:41;6.65;;;3.20;;
11078;SDS011;5592;49.234;7.268;2023-08-24T08:13:07;4.25;;;2.92;;
11078;SDS011;5592;49.234;7.268;2023-08-24T08:15:35;3.50;;;3.20;;
11078;SDS011;5592;49.234;7.268;2023-08-24T08:18:03;4.63;;;3.10;;
11078;SDS011;5592;49.234;7.268;2023-08-24T08:20:29;3.28;;;3.03;;
11078;SDS011;5592;49.234;7.268;2023-08-24T08:22:55;9.40;;;3.65;;
11078;SDS011;5592;49.234;7.268;2023-08-24T08:25:20;7.43;;;3.25;;
11078;SDS011;5592;49.234;7.268;2023-08-24T08:27:47;5.05;;;3.15;;
11078;SDS011;5592;49.234;7.268;2023-08-24T08:30:13;4.85;;;3.28;;
11078;SDS011;5592;49.234;7.268;2023-08-24T08:32:39;4.70;;;2.75;;
11078;SDS011;5592;49.234;7.268;2023-08-24T08:35:05;4.53;;;3.08;;
11078;SDS011;5592;49.234;7.268;2023-08-24T08:37:31;3.25;;;2.95;;
11078;SDS011;5592;49.234;7.268;2023-08-24T08:39:57;3.22;;;2.80;;
11078;SDS011;5592;49.234;7.268;2023-08-24T08:42:23;3.80;;;3.13;;
11078;SDS011;5592;49.234;7.268;2023-08-24T08:44:48;4.20;;;3.28;;
11078;SDS011;5592;49.234;7.268;2023-08-24T08:47:18;6.50;;;3.22;;
11078;SDS011;5592;49.234;7.268;2023-08-24T08:49:43;4.35;;;3.20;;
11078;SDS011;5592;49.234;7.268;2023-08-24T08:52:12;6.53;;;3.38;;
11078;SDS011;5592;49.234;7.268;2023-08-24T08:54:38;3.95;;;3.40;;
11078;SDS011;5592;49.234;7.268;2023-08-24T08:57:03;3.20;;;2.90;;
11078;SDS011;5592;49.234;7.268;2023-08-24T08:59:30;8.38;;;3.55;;
11078;SDS011;5592;49.234;7.268;2023-08-24T09:01:57;7.57;;;2.83;;
11078;SDS011;5592;49.234;7.268;2023-08-24T09:04:25;3.38;;;2.85;;
11078;SDS011;5592;49.234;7.268;2023-08-24T09:06:52;5.70;;;3.38;;
11078;SDS011;5592;49.234;7.268;2023-08-24T09:09:18;5.18;;;3.20;;
11078;SDS011;5592;49.234;7.268;2023-08-24T09:11:44;4.18;;;3.28;;
11078;SDS011;5592;49.234;7.268;2023-08-24T09:14:12;7.82;;;3.47;;
11078;SDS011;5592;49.234;7.268;2023-08-24T09:16:37;6.25;;;2.78;;
11078;SDS011;5592;49.234;7.268;2023-08-24T09:19:04;8.23;;;3.15;;
11078;SDS011;5592;49.234;7.268;2023-08-24T09:21:31;4.82;;;3.00;;
11078;SDS011;5592;49.234;7.268;2023-08-24T09:24:02;5.10;;;3.08;;
11078;SDS011;5592;49.234;7.268;2023-08-24T09:26:32;9.52;;;3.08;;
11078;SDS011;5592;49.234;7.268;2023-08-24T09:28:59;4.82;;;2.72;;
11078;SDS011;5592;49.234;7.268;2023-08-24T09:31:35;5.65;;;3.40;;
11078;SDS011;5592;49.234;7.268;2023-08-24T09:34:02;4.97;;;3.10;;
11078;SDS011;5592;49.234;7.268;2023-08-24T09:36:33;4.57;;;3.23;;
11078;SDS011;5592;49.234;7.268;2023-08-24T09:38:59;6.00;;;3.17;;
11078;SDS011;5592;49.234;7.268;2023-08-24T09:44:10;3.95;;;2.90;;
11078;SDS011;5592;49.234;7.268;2023-08-24T09:46:37;4.35;;;2.97;;
11078;SDS011;5592;49.234;7.268;2023-08-24T09:49:06;5.40;;;2.90;;
11078;SDS011;5592;49.234;7.268;2023-08-24T09:51:34;3.45;;;2.78;;
11078;SDS011;5592;49.234;7.268;2023-08-24T09:54:01;8.77;;;3.10;;
11078;SDS011;5592;49.234;7.268;2023-08-24T09:56:33;3.03;;;2.72;;
11078;SDS011;5592;49.234;7.268;2023-08-24T09:59:03;3.47;;;3.10;;
11078;SDS011;5592;49.234;7.268;2023-08-24T10:01:36;4.10;;;2.90;;
11078;SDS011;5592;49.234;7.268;2023-08-24T10:04:02;5.30;;;3.20;;
11078;SDS011;5592;49.234;7.268;2023-08-24T10:06:30;4.07;;;3.10;;
11078;SDS011;5592;49.234;7.268;2023-08-24T10:08:58;4.75;;;3.03;;
11078;SDS011;5592;49.234;7.268;2023-08-24T10:11:29;3.90;;;3.22;;
11078;SDS011;5592;49.234;7.268;2023-08-24T10:17:02;4.35;;;2.75;;
11078;SDS011;5592;49.234;7.268;2023-08-24T10:19:28;4.10;;;3.20;;
11078;SDS011;5592;49.234;7.268;2023-08-24T10:21:55;4.78;;;3.13;;
11078;SDS011;5592;49.234;7.268;2023-08-24T10:24:22;3.35;;;3.05;;
11078;SDS011;5592;49.234;7.268;2023-08-24T10:26:48;3.50;;;2.78;;
11078;SDS011;5592;49.234;7.268;2023-08-24T10:29:16;5.90;;;3.00;;
11078;SDS011;5592;49.234;7.268;2023-08-24T10:31:42;3.40;;;3.10;;
11078;SDS011;5592;49.234;7.268;2023-08-24T10:34:08;9.10;;;3.17;;
11078;SDS011;5592;49.234;7.268;2023-08-24T10:36:37;2.83;;;2.63;;
11078;SDS011;5592;49.234;7.268;2023-08-24T10:39:04;4.30;;;3.27;;
11078;SDS011;5592;49.234;7.268;2023-08-24T10:41:45;4.55;;;2.88;;
11078;SDS011;5592;49.234;7.268;2023-08-24T10:44:15;7.70;;;3.10;;
11078;SDS011;5592;49.234;7.268;2023-08-24T10:47:13;4.97;;;3.40;;
11078;SDS011;5592;49.234;7.268;2023-08-24T10:49:40;4.57;;;3.50;;
11078;SDS011;5592;49.234;7.268;2023-08-24T10:52:17;3.07;;;2.80;;
11078;SDS011;5592;49.234;7.268;2023-08-24T10:54:47;5.63;;;3.13;;
11078;SDS011;5592;49.234;7.268;2023-08-24T10:57:20;4.37;;;3.13;;
11078;SDS011;5592;49.234;7.268;2023-08-24T11:00:00;5.93;;;3.53;;
11078;SDS011;5592;49.234;7.268;2023-08-24T11:02:30;7.47;;;3.03;;
11078;SDS011;5592;49.234;7.268;2023-08-24T11:05:23;9.13;;;2.90;;
11078;SDS011;5592;49.234;7.268;2023-08-24T11:07:58;5.67;;;3.30;;
11078;SDS011;5592;49.234;7.268;2023-08-24T11:10:44;6.70;;;3.40;;
11078;SDS011;5592;49.234;7.268;2023-08-24T11:13:15;6.40;;;3.47;;
11078;SDS011;5592;49.234;7.268;2023-08-24T11:15:51;5.83;;;3.70;;
11078;SDS011;5592;49.234;7.268;2023-08-24T11:18:20;10.10;;;3.63;;
11078;SDS011;5592;49.234;7.268;2023-08-24T11:20:55;3.90;;;2.97;;
11078;SDS011;5592;49.234;7.268;2023-08-24T11:23:24;4.00;;;3.13;;
11078;SDS011;5592;49.234;7.268;2023-08-24T11:25:51;9.10;;;3.30;;
11078;SDS011;5592;49.234;7.268;2023-08-24T11:28:21;5.07;;;3.70;;
11078;SDS011;5592;49.234;7.268;2023-08-24T11:30:48;5.53;;;3.53;;
11078;SDS011;5592;49.234;7.268;2023-08-24T11:33:13;6.30;;;3.63;;
11078;SDS011;5592;49.234;7.268;2023-08-24T11:35:46;3.50;;;3.20;;
11078;SDS011;5592;49.234;7.268;2023-08-24T11:38:11;8.03;;;3.40;;
11078;SDS011;5592;49.234;7.268;2023-08-24T11:40:38;3.90;;;3.60;;
11078;SDS011;5592;49.234;7.268;2023-08-24T11:43:04;12.33;;;3.47;;
11078;SDS011;5592;49.234;7.268;2023-08-24T11:45:33;5.37;;;3.57;;
11078;SDS011;5592;49.234;7.268;2023-08-24T11:48:01;3.93;;;3.53;;
11078;SDS011;5592;49.234;7.268;2023-08-24T11:50:29;5.33;;;3.30;;
11078;SDS011;5592;49.234;7.268;2023-08-24T11:52:55;3.53;;;3.23;;
11078;SDS011;5592;49.234;7.268;2023-08-24T11:55:22;5.80;;;3.47;;
11078;SDS011;5592;49.234;7.268;2023-08-24T11:57:48;5.13;;;3.63;;
11078;SDS011;5592;49.234;7.268;2023-08-24T12:00:13;6.30;;;3.03;;
11078;SDS011;5592;49.234;7.268;2023-08-24T12:02:41;12.80;;;3.73;;
11078;SDS011;5592;49.234;7.268;2023-08-24T12:05:07;5.90;;;3.90;;
11078;SDS011;5592;49.234;7.268;2023-08-24T12:07:33;5.20;;;3.63;;
11078;SDS011;5592;49.234;7.268;2023-08-24T12:10:00;6.97;;;3.00;;
11078;SDS011;5592;49.234;7.268;2023-08-24T12:12:26;7.03;;;3.43;;
11078;SDS011;5592;49.234;7.268;2023-08-24T12:14:53;7.93;;;3.93;;
11078;SDS011;5592;49.234;7.268;2023-08-24T12:17:22;5.10;;;3.60;;
11078;SDS011;5592;49.234;7.268;2023-08-24T12:19:58;7.13;;;3.63;;
11078;SDS011;5592;49.234;7.268;2023-08-24T12:22:25;4.57;;;3.50;;
11078;SDS011;5592;49.234;7.268;2023-08-24T12:24:51;5.00;;;3.90;;
11078;SDS011;5592;49.234;7.268;2023-08-24T12:27:17;5.40;;;3.80;;
11078;SDS011;5592;49.234;7.268;2023-08-24T12:29:52;5.90;;;3.97;;
11078;SDS011;5592;49.234;7.268;2023-08-24T12:32:18;4.97;;;3.73;;
11078;SDS011;5592;49.234;7.268;2023-08-24T12:34:45;6.40;;;3.70;;
11078;SDS011;5592;49.234;7.268;2023-08-24T12:37:11;4.60;;;3.67;;
11078;SDS011;5592;49.234;7.268;2023-08-24T12:39:38;9.37;;;4.00;;
11078;SDS011;5592;49.234;7.268;2023-08-24T12:42:04;4.23;;;3.70;;
11078;SDS011;5592;49.234;7.268;2023-08-24T12:44:31;4.67;;;3.77;;
11078;SDS011;5592;49.234;7.268;2023-08-24T12:46:57;7.10;;;3.40;;
11078;SDS011;5592;49.234;7.268;2023-08-24T12:49:23;4.90;;;4.00;;
11078;SDS011;5592;49.234;7.268;2023-08-24T12:51:48;7.90;;;3.40;;
11078;SDS011;5592;49.234;7.268;2023-08-24T12:54:14;11.40;;;3.60;;
11078;SDS011;5592;49.234;7.268;2023-08-24T12:56:39;3.97;;;3.57;;
11078;SDS011;5592;49.234;7.268;2023-08-24T12:59:05;6.47;;;3.83;;
11078;SDS011;5592;49.234;7.268;2023-08-24T13:01:31;4.73;;;4.07;;
11078;SDS011;5592;49.234;7.268;2023-08-24T13:03:57;4.00;;;3.40;;
11078;SDS011;5592;49.234;7.268;2023-08-24T13:06:22;4.90;;;3.30;;
11078;SDS011;5592;49.234;7.268;2023-08-24T13:08:48;3.70;;;3.30;;
11078;SDS011;5592;49.234;7.268;2023-08-24T13:11:13;6.10;;;4.63;;
11078;SDS011;5592;49.234;7.268;2023-08-24T13:13:39;5.10;;;3.87;;
11078;SDS011;5592;49.234;7.268;2023-08-24T13:16:05;8.30;;;4.00;;
11078;SDS011;5592;49.234;7.268;2023-08-24T13:18:31;3.80;;;3.47;;
11078;SDS011;5592;49.234;7.268;2023-08-24T13:20:56;5.33;;;3.60;;
11078;SDS011;5592;49.234;7.268;2023-08-24T13:23:22;7.97;;;3.70;;
11078;SDS011;5592;49.234;7.268;2023-08-24T13:25:47;6.10;;;4.00;;
11078;SDS011;5592;49.234;7.268;2023-08-24T13:28:13;11.60;;;5.10;;
11078;SDS011;5592;49.234;7.268;2023-08-24T13:30:38;6.93;;;4.03;;
11078;SDS011;5592;49.234;7.268;2023-08-24T13:33:05;8.30;;;4.30;;
11078;SDS011;5592;49.234;7.268;2023-08-24T13:35:32;6.27;;;4.20;;
11078;SDS011;5592;49.234;7.268;2023-08-24T13:37:57;12.50;;;5.33;;
11078;SDS011;5592;49.234;7.268;2023-08-24T13:40:23;5.43;;;4.80;;
11078;SDS011;5592;49.234;7.268;2023-08-24T13:42:48;8.17;;;5.47;;
11078;SDS011;5592;49.234;7.268;2023-08-24T13:45:14;6.97;;;5.20;;
11078;SDS011;5592;49.234;7.268;2023-08-24T13:47:40;9.30;;;4.77;;
11078;SDS011;5592;49.234;7.268;2023-08-24T13:50:06;8.80;;;5.10;;
11078;SDS011;5592;49.234;7.268;2023-08-24T13:52:32;9.43;;;5.80;;
11078;SDS011;5592;49.234;7.268;2023-08-24T13:54:57;8.03;;;5.70;;
11078;SDS011;5592;49.234;7.268;2023-08-24T13:57:24;6.70;;;5.40;;
11078;SDS011;5592;49.234;7.268;2023-08-24T13:59:49;9.83;;;5.53;;
11078;SDS011;5592;49.234;7.268;2023-08-24T14:02:15;9.03;;;5.17;;
11078;SDS011;5592;49.234;7.268;2023-08-24T14:04:40;7.30;;;4.97;;
11078;SDS011;5592;49.234;7.268;2023-08-24T14:07:08;8.60;;;5.30;;
11078;SDS011;5592;49.234;7.268;2023-08-24T14:09:34;8.67;;;5.27;;
11078;SDS011;5592;49.234;7.268;2023-08-24T14:12:00;6.97;;;5.33;;
11078;SDS011;5592;49.234;7.268;2023-08-24T14:14:25;11.13;;;5.13;;
11078;SDS011;5592;49.234;7.268;2023-08-24T14:16:54;6.77;;;5.63;;
11078;SDS011;5592;49.234;7.268;2023-08-24T14:19:21;6.57;;;5.13;;
11078;SDS011;5592;49.234;7.268;2023-08-24T14:21:47;7.50;;;5.53;;
11078;SDS011;5592;49.234;7.268;2023-08-24T14:24:12;9.53;;;5.80;;
11078;SDS011;5592;49.234;7.268;2023-08-24T14:26:38;9.27;;;5.47;;
11078;SDS011;5592;49.234;7.268;2023-08-24T14:29:10;7.83;;;5.03;;
11078;SDS011;5592;49.234;7.268;2023-08-24T14:31:36;8.87;;;5.30;;
11078;SDS011;5592;49.234;7.268;2023-08-24T14:34:01;7.63;;;5.30;;
11078;SDS011;5592;49.234;7.268;2023-08-24T14:36:28;6.27;;;5.40;;
11078;SDS011;5592;49.234;7.268;2023-08-24T14:38:54;10.77;;;5.37;;
11078;SDS011;5592;49.234;7.268;2023-08-24T14:41:19;8.90;;;4.80;;
11078;SDS011;5592;49.234;7.268;2023-08-24T14:43:46;7.80;;;5.00;;
11078;SDS011;5592;49.234;7.268;2023-08-24T14:46:12;7.37;;;5.37;;
11078;SDS011;5592;49.234;7.268;2023-08-24T14:48:37;7.80;;;5.47;;
11078;SDS011;5592;49.234;7.268;2023-08-24T14:51:04;6.50;;;5.07;;
11078;SDS011;5592;49.234;7.268;2023-08-24T14:53:29;9.53;;;5.30;;
11078;SDS011;5592;49.234;7.268;2023-08-24T14:55:55;7.17;;;5.10;;
11078;SDS011;5592;49.234;7.268;2023-08-24T14:58:22;8.40;;;4.80;;
11078;SDS011;5592;49.234;7.268;2023-08-24T15:00:49;7.90;;;5.50;;
11078;SDS011;5592;49.234;7.268;2023-08-24T15:03:16;10.40;;;5.10;;
11078;SDS011;5592;49.234;7.268;2023-08-24T15:05:43;8.67;;;5.30;;
11078;SDS011;5592;49.234;7.268;2023-08-24T15:08:10;5.47;;;4.87;;
11078;SDS011;5592;49.234;7.268;2023-08-24T15:10:37;7.10;;;5.10;;